Time;durP1;ratioP1;P1;durP2;ratioP2;P2;SDS_P1;SDS_P2;PMS_P1;PMS_P2;Temp;Humidity;BMP_temperature;BMP_pressure;BME280_temperature;BME280_humidity;BME280_pressure;Samples;Min_cycle;Max_cycle;Signal;HPM_P1;HPM_P2
2022/12/24 00:01:18;;;;;;;24.95;3.67;;;;;;;10.10;96.23;100512.53;4916160;29;20036;-73
2022/12/24 00:03:46;;;;;;;23.48;4.05;;;;;;;10.09;95.49;100516.06;4919921;29;20041;-75
2022/12/24 00:06:22;;;;;;;26.95;3.95;;;;;;;10.07;95.94;100522.31;4913701;29;20048;-73
2022/12/24 00:08:50;;;;;;;26.95;4.45;;;;;;;10.00;95.88;100523.44;4921707;29;20909;-73
2022/12/24 00:11:19;;;;;;;31.83;4.53;;;;;;;9.93;96.26;100528.03;4913607;29;20107;-73
2022/12/24 00:13:48;;;;;;;21.85;5.03;;;;;;;9.90;96.27;100523.72;4904786;29;20979;-73
2022/12/24 00:16:15;;;;;;;35.40;5.47;;;;;;;9.88;96.03;100536.09;4920304;29;20072;-72
2022/12/24 00:18:42;;;;;;;25.20;4.15;;;;;;;9.86;96.52;100535.25;4929560;29;20060;-73
2022/12/24 00:21:15;;;;;;;33.33;4.68;;;;;;;9.84;96.94;100531.81;4930241;28;20048;-74
2022/12/24 00:23:43;;;;;;;40.00;5.10;;;;;;;9.81;96.21;100539.84;4931538;29;20083;-75
2022/12/24 00:26:12;;;;;;;29.05;4.53;;;;;;;9.78;96.21;100542.56;4932803;29;20044;-75
2022/12/24 00:28:40;;;;;;;30.80;4.85;;;;;;;9.78;96.49;100547.81;4931687;28;20143;-75
2022/12/24 00:31:11;;;;;;;28.30;4.75;;;;;;;9.77;96.70;100552.19;4942966;28;20798;-75
2022/12/24 00:33:38;;;;;;;34.35;4.53;;;;;;;9.78;96.60;100550.44;4927901;29;20045;-75
2022/12/24 00:36:06;;;;;;;23.73;4.10;;;;;;;9.79;97.19;100550.38;4930969;28;20072;-74
2022/12/24 00:38:33;;;;;;;30.80;4.20;;;;;;;9.81;96.89;100562.66;4931378;28;20052;-75
2022/12/24 00:41:05;;;;;;;29.67;5.05;;;;;;;9.84;96.29;100563.41;4931565;29;20439;-73
2022/12/24 00:43:32;;;;;;;27.73;4.30;;;;;;;9.81;96.97;100560.00;4929379;29;20139;-74
2022/12/24 00:45:59;;;;;;;34.65;4.68;;;;;;;9.79;97.53;100555.66;4930859;28;20044;-75
2022/12/24 00:48:26;;;;;;;36.95;4.57;;;;;;;9.78;97.23;100563.63;4928592;29;20132;-75
2022/12/24 00:50:53;;;;;;;31.80;4.50;;;;;;;9.76;97.08;100557.53;4928543;28;20054;-75
2022/12/24 00:53:20;;;;;;;37.67;5.45;;;;;;;9.74;96.84;100570.75;4930347;29;20063;-74
2022/12/24 00:55:47;;;;;;;34.53;4.75;;;;;;;9.71;97.42;100575.25;4930002;29;20135;-75
2022/12/24 00:58:14;;;;;;;34.95;4.22;;;;;;;9.69;96.87;100580.53;4929558;28;20075;-74
2022/12/24 01:00:42;;;;;;;37.38;5.20;;;;;;;9.71;96.19;100578.72;4930408;29;20078;-72
2022/12/24 01:03:09;;;;;;;33.75;5.40;;;;;;;9.71;96.47;100591.91;4931521;29;20052;-71
2022/12/24 01:05:36;;;;;;;33.97;5.50;;;;;;;9.70;96.96;100587.53;4929669;29;20066;-71
2022/12/24 01:08:03;;;;;;;35.20;5.10;;;;;;;9.69;97.82;100591.06;4930827;29;20155;-74
2022/12/24 01:10:30;;;;;;;27.35;5.07;;;;;;;9.70;96.80;100592.78;4931059;29;20040;-76
2022/12/24 01:13:01;;;;;;;29.45;5.30;;;;;;;9.73;96.84;100603.25;4929799;29;20506;-76
2022/12/24 01:15:29;;;;;;;33.67;5.57;;;;;;;9.72;97.19;100604.16;4931687;29;20140;-75
2022/12/24 01:17:57;;;;;;;35.13;6.63;;;;;;;9.73;96.58;100611.13;4927649;28;20060;-75
2022/12/24 01:20:30;;;;;;;35.67;5.68;;;;;;;9.73;96.86;100605.88;4929081;28;20051;-75
2022/12/24 01:22:57;;;;;;;38.47;6.25;;;;;;;9.76;96.49;100612.81;4929937;29;20052;-72
2022/12/24 01:25:25;;;;;;;39.40;6.00;;;;;;;9.73;97.14;100612.91;4930697;29;20059;-72
2022/12/24 01:27:52;;;;;;;31.48;6.20;;;;;;;9.72;97.38;100616.44;4932385;28;20123;-71
2022/12/24 01:30:20;;;;;;;30.75;5.53;;;;;;;9.68;96.39;100626.19;4931676;28;20036;-73
2022/12/24 01:32:47;;;;;;;29.75;5.53;;;;;;;9.64;97.16;100627.22;4934437;29;20163;-73
2022/12/24 01:35:14;;;;;;;29.00;6.50;;;;;;;9.63;96.79;100634.22;4934874;29;20047;-73
2022/12/24 01:37:42;;;;;;;32.25;5.95;;;;;;;9.66;96.47;100633.31;4932995;28;20123;-72
2022/12/24 01:43:22;;;;;;;35.03;6.10;;;;;;;9.72;96.86;100643.63;4933738;29;20526;-73
2022/12/24 01:46:00;;;;;;;36.58;5.95;;;;;;;9.73;97.15;100645.38;4930450;28;20051;-72
2022/12/24 01:48:43;;;;;;;32.90;5.68;;;;;;;9.75;97.45;100658.47;4932609;29;20566;-72
2022/12/24 01:51:50;;;;;;;41.20;5.70;;;;;;;9.76;97.42;100660.19;4930232;28;20146;-72
2022/12/24 01:54:35;;;;;;;28.95;5.85;;;;;;;9.77;97.77;100654.03;4932158;29;20043;-74
2022/12/24 01:57:14;;;;;;;32.92;5.20;;;;;;;9.77;97.51;100654.03;4932031;28;20040;-72
2022/12/24 01:59:48;;;;;;;29.13;5.55;;;;;;;9.79;97.02;100658.34;4919989;29;20473;-73
2022/12/24 02:02:16;;;;;;;29.45;5.13;;;;;;;9.78;96.81;100663.66;4934277;29;20047;-73
2022/12/24 02:05:03;;;;;;;27.20;6.25;;;;;;;9.77;96.44;100662.78;4932566;29;20092;-71
2022/12/24 02:07:31;;;;;;;30.48;5.50;;;;;;;9.75;96.37;100674.25;4933554;29;20071;-74
2022/12/24 02:10:00;;;;;;;28.48;5.85;;;;;;;9.72;96.99;100676.97;4932638;29;20040;-74
2022/12/24 02:12:33;;;;;;;27.50;5.50;;;;;;;9.70;96.28;100677.03;4933828;29;20051;-74
2022/12/24 02:15:01;;;;;;;28.30;5.68;;;;;;;9.68;96.88;100684.09;4927158;28;20044;-73
2022/12/24 02:17:58;;;;;;;28.20;5.53;;;;;;;9.63;96.60;100692.13;4932889;28;20048;-73
2022/12/24 02:20:53;;;;;;;32.50;5.65;;;;;;;9.53;96.39;100700.34;4932892;28;20044;-74
2022/12/24 02:23:56;;;;;;;29.67;5.18;;;;;;;9.44;96.42;100704.09;4931954;28;20041;-75
2022/12/24 02:26:59;;;;;;;34.55;5.97;;;;;;;9.34;96.26;100695.59;4934518;28;20800;-73
2022/12/24 02:30:12;;;;;;;34.03;5.20;;;;;;;9.26;96.64;100708.13;4932805;28;20052;-74
2022/12/24 02:33:30;;;;;;;37.35;5.88;;;;;;;9.19;97.36;100701.25;4924646;28;20056;-73
2022/12/24 02:36:22;;;;;;;31.23;6.13;;;;;;;9.18;98.25;100710.94;4916035;29;20075;-74
2022/12/24 02:39:07;;;;;;;35.80;5.95;;;;;;;9.23;98.84;100711.66;4931779;28;20044;-74
2022/12/24 02:44:43;;;;;;;29.13;5.60;;;;;;;9.29;98.71;100706.25;4930509;29;20100;-74
2022/12/24 02:47:13;;;;;;;34.20;6.20;;;;;;;9.31;98.59;100709.69;4930311;28;20056;-75
2022/12/24 02:49:46;;;;;;;33.17;5.82;;;;;;;9.36;98.13;100711.34;4932646;29;20132;-74
2022/12/24 02:52:37;;;;;;;36.63;6.43;;;;;;;9.38;98.26;100702.50;4927518;28;20743;-72
2022/12/24 02:55:18;;;;;;;36.75;6.05;;;;;;;9.40;98.32;100707.72;4932497;28;20920;-71
2022/12/24 02:58:28;;;;;;;29.48;5.68;;;;;;;9.43;98.40;100703.25;4932307;29;20103;-71
2022/12/24 03:01:15;;;;;;;44.15;7.82;;;;;;;9.44;97.90;100701.47;4928007;28;20044;-71
2022/12/24 03:04:11;;;;;;;34.85;6.70;;;;;;;9.43;97.81;100697.09;4931227;28;20041;-73
2022/12/24 03:07:35;;;;;;;35.33;5.90;;;;;;;9.45;98.03;100703.19;4929188;28;20139;-73
2022/12/24 03:10:34;;;;;;;35.70;6.05;;;;;;;9.48;98.41;100703.13;4931348;29;20052;-73
2022/12/24 03:13:16;;;;;;;37.70;6.22;;;;;;;9.47;98.27;100704.88;4935140;28;20096;-72
2022/12/24 03:15:47;;;;;;;36.97;6.88;;;;;;;9.53;98.95;100705.63;4930034;28;20055;-73
2022/12/24 03:18:19;;;;;;;33.03;6.45;;;;;;;9.55;99.05;100704.66;4932365;28;20427;-74
2022/12/24 03:21:05;;;;;;;43.35;7.55;;;;;;;9.58;98.64;100699.31;4932372;28;20048;-72
2022/12/24 03:23:34;;;;;;;32.55;6.30;;;;;;;9.58;98.41;100707.22;4930482;29;20518;-72
2022/12/24 03:26:07;;;;;;;37.45;6.60;;;;;;;9.54;98.05;100708.19;4921143;28;20049;-72
2022/12/24 03:28:39;;;;;;;39.73;7.13;;;;;;;9.49;98.14;100702.22;4930546;29;20040;-72
2022/12/24 03:31:10;;;;;;;38.10;6.22;;;;;;;9.41;98.31;100709.47;4932446;29;20052;-73
2022/12/24 03:33:38;;;;;;;37.70;6.65;;;;;;;9.33;98.17;100710.50;4932696;29;20033;-72
2022/12/24 03:36:07;;;;;;;34.42;6.13;;;;;;;9.27;98.38;100712.44;4931427;29;20044;-72
2022/12/24 03:38:34;;;;;;;43.40;6.95;;;;;;;9.20;98.47;100706.50;4930153;28;20044;-73
2022/12/24 03:41:03;;;;;;;34.53;6.15;;;;;;;9.16;98.80;100712.75;4932731;29;20413;-72
2022/12/24 03:43:30;;;;;;;36.03;6.53;;;;;;;9.11;99.08;100719.88;4931877;29;20080;-72
2022/12/24 03:46:03;;;;;;;37.25;5.97;;;;;;;9.09;99.14;100714.66;4932266;28;20040;-72
2022/12/24 03:48:34;;;;;;;30.05;6.75;;;;;;;9.05;99.29;100722.66;4931398;29;20047;-71
2022/12/24 03:51:02;;;;;;;35.17;6.50;;;;;;;9.05;99.50;100722.66;4931130;29;20052;-74
2022/12/24 03:53:30;;;;;;;32.13;6.55;;;;;;;9.08;99.32;100720.81;4930964;29;20874;-74
2022/12/24 03:55:58;;;;;;;38.80;7.38;;;;;;;9.09;99.48;100717.28;4931679;29;20103;-74
2022/12/24 03:58:25;;;;;;;42.75;7.65;;;;;;;9.09;99.70;100726.97;4929503;28;20126;-74
2022/12/24 04:00:53;;;;;;;40.30;6.85;;;;;;;9.10;100.00;100733.94;4931658;29;20044;-74
2022/12/24 04:03:20;;;;;;;42.65;7.00;;;;;;;9.12;100.00;100733.00;4930943;29;20429;-73
2022/12/24 04:05:47;;;;;;;39.28;7.25;;;;;;;9.19;100.00;100738.97;4932439;29;20498;-74
2022/12/24 04:08:14;;;;;;;36.63;6.13;;;;;;;9.25;100.00;100737.94;4924425;28;20115;-75
2022/12/24 04:10:41;;;;;;;41.60;6.95;;;;;;;9.33;100.00;100739.44;4931435;29;20044;-75
2022/12/24 04:13:09;;;;;;;27.05;6.15;;;;;;;9.42;100.00;100746.25;4931428;28;20071;-75
2022/12/24 04:15:36;;;;;;;35.53;6.80;;;;;;;9.47;100.00;100738.22;4929585;29;20056;-74
2022/12/24 04:18:03;;;;;;;38.20;7.53;;;;;;;9.50;100.00;100732.00;4928784;28;20100;-73
2022/12/24 04:20:30;;;;;;;34.17;6.65;;;;;;;9.47;100.00;100730.34;4931222;29;20072;-74
2022/12/24 04:22:57;;;;;;;31.65;6.40;;;;;;;9.44;100.00;100736.56;4929944;29;20077;-74
2022/12/24 04:25:24;;;;;;;36.53;6.57;;;;;;;9.43;100.00;100740.09;4931009;28;20048;-74
2022/12/24 04:27:52;;;;;;;31.80;6.47;;;;;;;9.40;100.00;100748.03;4930379;28;20075;-75
2022/12/24 04:30:19;;;;;;;30.55;5.63;;;;;;;9.43;100.00;100755.00;4928899;29;20073;-75
2022/12/24 04:32:46;;;;;;;33.83;5.93;;;;;;;9.44;100.00;100754.97;4930110;29;20045;-75
2022/12/24 04:35:13;;;;;;;32.25;7.00;;;;;;;9.44;100.00;100765.50;4932142;28;20059;-73
2022/12/24 04:37:40;;;;;;;28.83;6.00;;;;;;;9.47;100.00;100761.91;4928843;28;20052;-71
2022/12/24 04:40:08;;;;;;;27.52;6.00;;;;;;;9.52;100.00;100767.03;4931013;28;20039;-73
2022/12/24 04:42:35;;;;;;;31.92;6.30;;;;;;;9.56;100.00;100771.34;4930050;29;20055;-72
2022/12/24 04:45:03;;;;;;;27.48;6.32;;;;;;;9.58;100.00;100767.75;4934032;28;20908;-73
2022/12/24 04:47:30;;;;;;;29.40;6.28;;;;;;;9.62;100.00;100771.16;4930567;28;20100;-74
2022/12/24 04:49:58;;;;;;;26.00;5.88;;;;;;;9.67;100.00;100763.13;4923454;28;20056;-72
2022/12/24 04:52:25;;;;;;;35.55;6.40;;;;;;;9.69;100.00;100771.84;4927430;29;20044;-72
2022/12/24 04:54:54;;;;;;;31.90;7.20;;;;;;;9.69;100.00;100770.06;4933328;28;20048;-73
2022/12/24 04:57:21;;;;;;;40.92;6.78;;;;;;;9.71;100.00;100770.03;4931645;28;20044;-74
2022/12/24 04:59:47;;;;;;;28.88;6.88;;;;;;;9.72;100.00;100777.00;4931404;29;20048;-73
2022/12/24 05:02:16;;;;;;;28.42;6.93;;;;;;;9.74;100.00;100772.56;4928924;28;20046;-72
2022/12/24 05:04:43;;;;;;;26.98;6.15;;;;;;;9.77;100.00;100777.75;4930020;29;20480;-72
2022/12/24 05:07:10;;;;;;;28.08;6.03;;;;;;;9.78;100.00;100779.50;4930817;29;20388;-72
2022/12/24 05:09:37;;;;;;;30.33;6.30;;;;;;;9.81;100.00;100787.31;4930278;29;20052;-71
2022/12/24 05:12:05;;;;;;;33.20;6.00;;;;;;;9.83;100.00;100790.75;4930435;29;20499;-72
2022/12/24 05:14:33;;;;;;;32.97;6.75;;;;;;;9.82;100.00;100777.63;4929914;29;20048;-71
2022/12/24 05:17:00;;;;;;;29.75;5.97;;;;;;;9.82;100.00;100782.91;4929567;28;20048;-73
2022/12/24 05:19:27;;;;;;;30.55;6.22;;;;;;;9.78;100.00;100779.50;4930724;28;20131;-74
2022/12/24 05:27:39;;;;;;;27.48;5.43;;;;;;;9.68;100.00;100791.19;4906257;28;20486;-72
2022/12/24 05:30:13;;;;;;;28.45;5.70;;;;;;;9.67;100.00;100781.56;4927116;29;20052;-71
2022/12/24 05:32:40;;;;;;;27.33;5.65;;;;;;;9.64;100.00;100779.88;4931106;29;20112;-74
2022/12/24 05:35:07;;;;;;;29.02;6.35;;;;;;;9.68;100.00;100785.91;4930985;29;20087;-74
2022/12/24 05:37:35;;;;;;;29.88;6.30;;;;;;;9.70;100.00;100789.38;4926936;28;20101;-74
2022/12/24 05:40:03;;;;;;;31.33;6.13;;;;;;;9.69;100.00;100793.75;4932448;29;20131;-73
2022/12/24 05:42:30;;;;;;;28.63;5.22;;;;;;;9.67;100.00;100798.19;4929337;28;20048;-74
2022/12/24 05:44:57;;;;;;;28.85;6.10;;;;;;;9.68;100.00;100794.66;4931644;29;20048;-74
2022/12/24 05:47:25;;;;;;;28.98;5.60;;;;;;;9.72;100.00;100790.16;4930053;28;20044;-75
2022/12/24 05:49:52;;;;;;;25.70;5.22;;;;;;;9.72;100.00;100798.06;4930179;29;20044;-74
2022/12/24 05:52:19;;;;;;;23.45;5.47;;;;;;;9.74;100.00;100804.16;4933233;28;21760;-73
2022/12/24 05:54:46;;;;;;;29.13;5.15;;;;;;;9.75;100.00;100811.16;4929315;28;20044;-73
2022/12/24 05:57:15;;;;;;;31.42;5.57;;;;;;;9.74;100.00;100798.91;4931133;29;20503;-74
2022/12/24 05:59:45;;;;;;;29.13;5.90;;;;;;;9.73;100.00;100803.31;4935605;28;20049;-75
2022/12/24 06:02:12;;;;;;;26.80;5.45;;;;;;;9.73;100.00;100808.59;4930739;29;20051;-75
2022/12/24 06:04:39;;;;;;;25.65;5.18;;;;;;;9.73;100.00;100812.97;4935855;28;20044;-73
2022/12/24 06:07:06;;;;;;;23.23;5.32;;;;;;;9.70;100.00;100816.56;4932864;28;20156;-75
2022/12/24 06:09:33;;;;;;;32.70;5.43;;;;;;;9.70;100.00;100821.81;4928088;29;20045;-74
2022/12/24 06:12:03;;;;;;;29.13;5.20;;;;;;;9.69;100.00;100820.09;4930505;28;20075;-74
2022/12/24 06:14:30;;;;;;;32.35;5.03;;;;;;;9.69;100.00;100824.50;4931043;29;20455;-74
2022/12/24 06:16:57;;;;;;;27.30;4.93;;;;;;;9.68;100.00;100828.88;4932620;28;20044;-75
2022/12/24 06:19:24;;;;;;;25.45;5.28;;;;;;;9.68;100.00;100828.88;4933816;29;20091;-74
2022/12/24 06:21:51;;;;;;;30.58;6.10;;;;;;;9.68;100.00;100835.94;4928318;28;20092;-73
2022/12/24 06:24:18;;;;;;;39.85;6.40;;;;;;;9.70;100.00;100834.13;4939163;28;20111;-71
2022/12/24 06:26:46;;;;;;;28.58;4.78;;;;;;;9.72;100.00;100837.56;4936543;28;20462;-70
2022/12/24 06:29:14;;;;;;;27.67;5.10;;;;;;;9.74;100.00;100836.63;4934619;28;20100;-71
2022/12/24 06:31:41;;;;;;;31.40;5.60;;;;;;;9.74;100.00;100836.63;4946752;28;20044;-71
2022/12/24 06:34:08;;;;;;;29.65;4.93;;;;;;;9.77;100.00;100841.78;4937629;28;20048;-70
2022/12/24 06:36:35;;;;;;;23.95;5.90;;;;;;;9.77;100.00;100852.31;4946898;28;20048;-71
2022/12/24 06:39:02;;;;;;;35.83;5.18;;;;;;;9.77;99.71;100854.97;4936724;28;20477;-72
2022/12/24 06:41:29;;;;;;;33.08;5.45;;;;;;;9.76;99.94;100848.00;4934571;28;20044;-73
2022/12/24 06:43:57;;;;;;;36.42;5.90;;;;;;;9.73;99.82;100841.91;4931969;28;20163;-73
2022/12/24 06:46:25;;;;;;;35.15;5.50;;;;;;;9.68;99.29;100854.34;4945561;28;20048;-74
2022/12/24 06:48:53;;;;;;;23.95;5.45;;;;;;;9.62;99.38;100858.88;4936829;28;20051;-74
2022/12/24 06:51:21;;;;;;;29.35;4.78;;;;;;;9.57;99.21;100865.16;4941118;28;20056;-72
2022/12/24 06:53:51;;;;;;;31.92;5.80;;;;;;;9.52;99.64;100870.53;4946208;28;20545;-72
2022/12/24 06:56:20;;;;;;;32.55;5.97;;;;;;;9.54;99.99;100875.78;4938837;28;20122;-73
2022/12/24 06:58:48;;;;;;;28.67;5.32;;;;;;;9.54;100.00;100867.88;4934529;28;20050;-73
2022/12/24 07:01:18;;;;;;;30.48;5.70;;;;;;;9.51;100.00;100866.19;4919017;28;20045;-71
2022/12/24 07:03:46;;;;;;;29.80;6.32;;;;;;;9.45;99.96;100871.59;4942904;28;20119;-72
2022/12/24 07:06:27;;;;;;;33.63;5.88;;;;;;;9.39;99.88;100869.97;4932012;28;20041;-72
2022/12/24 07:08:55;;;;;;;29.98;5.85;;;;;;;9.36;99.93;100871.84;4934288;28;20077;-72
2022/12/24 07:11:24;;;;;;;31.02;5.63;;;;;;;9.33;99.74;100871.00;4936086;28;20044;-70
2022/12/24 07:13:52;;;;;;;27.98;5.75;;;;;;;9.36;100.00;100872.69;4933934;28;20076;-72
2022/12/24 07:16:19;;;;;;;30.08;5.13;;;;;;;9.35;100.00;100883.25;4934757;28;20087;-72
2022/12/24 07:18:46;;;;;;;25.75;5.38;;;;;;;9.32;100.00;100892.94;4936394;28;20060;-73
2022/12/24 07:21:13;;;;;;;32.05;5.50;;;;;;;9.35;100.00;100885.88;4936022;28;20554;-72
2022/12/24 07:23:40;;;;;;;33.42;5.70;;;;;;;9.41;100.00;100891.03;4931724;28;20047;-74
2022/12/24 07:26:07;;;;;;;23.05;5.63;;;;;;;9.41;100.00;100889.22;4931897;28;20056;-72
2022/12/24 07:28:34;;;;;;;30.02;6.03;;;;;;;9.43;100.00;100895.34;4936130;28;20028;-72
2022/12/24 07:31:03;;;;;;;28.08;5.57;;;;;;;9.44;100.00;100901.44;4935728;28;20044;-74
2022/12/24 07:33:30;;;;;;;24.63;5.30;;;;;;;9.46;100.00;100905.75;4933611;28;20056;-71
2022/12/24 07:36:06;;;;;;;24.73;5.60;;;;;;;9.55;100.00;100902.03;4933253;28;20581;-71
2022/12/24 07:38:34;;;;;;;33.63;5.88;;;;;;;9.64;100.00;100908.84;4939232;28;20103;-69
2022/12/24 07:41:02;;;;;;;27.45;5.63;;;;;;;9.74;100.00;100918.25;4927221;28;20119;-70
2022/12/24 07:43:31;;;;;;;27.20;5.50;;;;;;;9.88;100.00;100922.28;4936154;28;20051;-71
2022/12/24 07:45:59;;;;;;;23.05;5.38;;;;;;;9.96;100.00;100922.97;4930844;28;20076;-70
2022/12/24 07:48:27;;;;;;;25.40;5.45;;;;;;;10.07;100.00;100933.19;4942111;28;20194;-69
2022/12/24 07:50:56;;;;;;;21.15;5.22;;;;;;;10.14;99.71;100941.81;4932917;29;20096;-70
2022/12/24 07:53:25;;;;;;;36.83;6.30;;;;;;;10.18;99.02;100944.31;4935959;28;20096;-70
2022/12/24 07:55:53;;;;;;;26.65;5.38;;;;;;;10.21;98.74;100949.50;4934520;28;20111;-70
2022/12/24 07:58:21;;;;;;;25.05;4.95;;;;;;;10.23;98.94;100952.09;4934509;28;20052;-72
2022/12/24 08:00:48;;;;;;;24.20;5.03;;;;;;;10.24;98.89;100952.03;4933516;28;20056;-71
2022/12/24 08:03:20;;;;;;;24.13;5.25;;;;;;;10.26;98.18;100958.13;4938684;28;20044;-71
2022/12/24 08:05:51;;;;;;;25.42;5.22;;;;;;;10.29;98.15;100967.72;4930380;28;20211;-73
2022/12/24 08:08:19;;;;;;;32.13;5.43;;;;;;;10.31;97.89;100965.06;4932450;28;20048;-74
2022/12/24 08:10:46;;;;;;;27.95;5.25;;;;;;;10.32;97.87;100979.97;4931852;29;20044;-73
2022/12/24 08:13:13;;;;;;;30.88;5.85;;;;;;;10.33;97.77;100984.31;4922317;29;20040;-73
2022/12/24 08:15:41;;;;;;;29.33;5.45;;;;;;;10.34;97.58;100983.41;4929817;29;20051;-72
2022/12/24 08:18:09;;;;;;;27.30;5.90;;;;;;;10.35;97.69;100988.66;4936113;28;20087;-74
2022/12/24 08:20:40;;;;;;;28.40;5.30;;;;;;;10.38;97.65;100996.50;4931747;29;20538;-72
2022/12/24 08:23:08;;;;;;;39.40;6.20;;;;;;;10.38;96.37;100998.28;4930534;28;20041;-72
2022/12/24 08:25:36;;;;;;;25.67;5.40;;;;;;;10.37;96.84;101007.97;4928129;29;20837;-73
2022/12/24 08:28:05;;;;;;;23.23;5.80;;;;;;;10.36;95.91;101007.97;4930558;29;20044;-72
2022/12/24 08:30:32;;;;;;;33.95;6.00;;;;;;;10.35;95.69;101007.09;4930748;29;20047;-71
2022/12/24 08:32:59;;;;;;;24.05;5.22;;;;;;;10.34;95.57;101015.91;4931960;28;20055;-72
2022/12/24 08:35:27;;;;;;;25.38;5.18;;;;;;;10.32;95.92;101004.53;4930989;29;20120;-72
2022/12/24 08:37:54;;;;;;;33.25;6.20;;;;;;;10.35;95.97;101016.75;4931833;28;20055;-71
2022/12/24 08:40:22;;;;;;;29.45;5.50;;;;;;;10.36;96.22;101021.13;4928094;29;20204;-71
2022/12/24 08:42:50;;;;;;;30.63;5.55;;;;;;;10.36;95.77;101015.88;4913560;29;20131;-70
2022/12/24 08:45:18;;;;;;;23.20;4.72;;;;;;;10.36;95.78;101015.88;4927957;28;20489;-70
2022/12/24 08:47:46;;;;;;;33.42;5.90;;;;;;;10.38;95.87;101022.00;4929134;28;20474;-70
2022/12/24 08:50:14;;;;;;;31.20;5.30;;;;;;;10.40;95.60;101023.69;4929843;29;20040;-71
2022/12/24 08:52:41;;;;;;;23.83;5.05;;;;;;;10.40;94.90;101017.56;4929568;28;20981;-70
2022/12/24 08:55:08;;;;;;;29.27;5.43;;;;;;;10.39;94.46;101023.72;4930236;28;20051;-70
2022/12/24 08:57:36;;;;;;;25.65;5.20;;;;;;;10.36;94.50;101027.28;4923860;28;20303;-71
2022/12/24 09:00:06;;;;;;;27.70;5.20;;;;;;;10.37;93.94;101033.41;4928112;29;20044;-70
2022/12/24 09:02:33;;;;;;;26.38;5.13;;;;;;;10.38;94.59;101037.81;4929891;29;20596;-70
2022/12/24 09:05:00;;;;;;;29.92;8.40;;;;;;;10.40;94.99;101036.00;4925290;28;20200;-71
2022/12/24 09:07:27;;;;;;;36.75;12.52;;;;;;;10.37;94.82;101049.22;4910637;29;20159;-71
2022/12/24 09:09:55;;;;;;;31.80;13.75;;;;;;;10.30;94.73;101039.75;4916379;29;20057;-72
2022/12/24 09:12:22;;;;;;;39.13;12.30;;;;;;;10.23;94.76;101045.16;4917904;29;20040;-72
2022/12/24 09:14:50;;;;;;;26.25;6.88;;;;;;;10.17;94.97;101050.59;4913630;29;20057;-71
2022/12/24 09:17:17;;;;;;;30.25;8.57;;;;;;;10.14;95.29;101063.00;4911745;29;20059;-72
2022/12/24 09:19:46;;;;;;;69.38;31.00;;;;;;;10.15;95.27;101060.31;4908055;29;20555;-70
2022/12/24 09:22:14;;;;;;;34.63;8.50;;;;;;;10.15;95.52;101073.47;4913261;29;20574;-72
2022/12/24 09:24:41;;;;;;;30.70;7.38;;;;;;;10.16;95.62;101067.31;4922295;29;20040;-71
2022/12/24 09:27:08;;;;;;;29.02;7.13;;;;;;;10.18;95.31;101072.53;4906856;29;20101;-74
2022/12/24 09:29:35;;;;;;;38.53;13.38;;;;;;;10.16;95.09;101079.63;4906102;29;20079;-72
2022/12/24 09:32:03;;;;;;;46.00;20.52;;;;;;;10.14;95.46;101079.66;4907986;29;20040;-72
2022/12/24 09:34:30;;;;;;;31.80;6.30;;;;;;;10.17;95.30;101084.00;4901531;29;20053;-70
2022/12/24 09:36:59;;;;;;;29.35;6.35;;;;;;;10.17;95.47;101082.22;4905159;29;20092;-70
2022/12/24 09:39:25;;;;;;;31.08;6.43;;;;;;;10.18;95.70;101094.50;4913713;29;20048;-71
2022/12/24 09:42:14;;;;;;;33.88;6.28;;;;;;;10.22;96.01;101096.16;4919027;29;20047;-70
2022/12/24 09:44:50;;;;;;;32.65;5.68;;;;;;;10.23;95.86;101103.13;4914258;29;20041;-71
2022/12/24 09:47:51;;;;;;;28.40;5.22;;;;;;;10.18;95.28;101105.03;4921278;29;20075;-71
2022/12/24 09:51:04;;;;;;;29.20;6.43;;;;;;;10.13;95.30;101103.41;4894218;29;20121;-70
2022/12/24 09:53:42;;;;;;;30.73;6.13;;;;;;;10.08;95.78;101114.06;4919652;29;20032;-71
2022/12/24 09:56:21;;;;;;;32.47;6.35;;;;;;;10.09;95.79;101119.28;4920429;29;20044;-75
2022/12/24 09:58:58;;;;;;;31.60;9.07;;;;;;;10.18;96.34;101112.94;4930071;29;20511;-72
2022/12/24 10:01:29;;;;;;;26.45;6.22;;;;;;;10.31;96.62;101124.03;4914286;29;20049;-72
2022/12/24 10:04:03;;;;;;;28.77;6.45;;;;;;;10.43;96.23;101120.25;4917252;29;20076;-72
2022/12/24 10:07:19;;;;;;;31.60;6.88;;;;;;;10.50;95.40;101120.97;4915963;29;20071;-73
2022/12/24 10:10:29;;;;;;;34.63;6.25;;;;;;;10.71;94.87;101138.00;4890183;29;20128;-71
2022/12/24 10:13:03;;;;;;;29.25;6.25;;;;;;;10.83;95.02;101148.25;4912040;29;20049;-72
2022/12/24 10:15:42;;;;;;;41.63;11.77;;;;;;;10.91;94.15;101155.94;4921369;29;20124;-71
2022/12/24 10:18:46;;;;;;;33.00;7.10;;;;;;;11.00;93.54;101141.63;4929527;29;20096;-71
2022/12/24 10:21:36;;;;;;;30.73;6.07;;;;;;;11.08;93.69;101139.66;4921314;29;20037;-72
2022/12/24 10:24:16;;;;;;;28.08;7.20;;;;;;;11.09;92.62;101153.72;4917392;29;20041;-72
2022/12/24 10:26:58;;;;;;;30.63;6.45;;;;;;;11.05;92.95;101155.56;4921029;29;20051;-73
2022/12/24 10:29:33;;;;;;;31.98;6.82;;;;;;;11.05;93.08;101150.28;4913890;29;20044;-70
2022/12/24 10:32:06;;;;;;;25.58;5.63;;;;;;;11.13;93.18;101142.16;4926006;29;20040;-72
2022/12/24 10:34:45;;;;;;;34.65;6.78;;;;;;;11.15;93.35;101140.34;4926712;29;20121;-70
2022/12/24 10:37:23;;;;;;;29.10;6.45;;;;;;;11.10;93.85;101145.75;4911675;29;20489;-70
2022/12/24 10:39:51;;;;;;;39.20;8.15;;;;;;;11.14;92.13;101139.47;4915047;29;20124;-70
2022/12/24 10:42:24;;;;;;;35.38;7.25;;;;;;;11.17;92.47;101141.19;4917823;29;20120;-70
2022/12/24 10:45:00;;;;;;;23.48;5.97;;;;;;;11.15;92.04;101135.06;4915892;29;20044;-72
2022/12/24 10:47:30;;;;;;;29.58;6.43;;;;;;;11.13;92.12;101126.31;4919103;29;20046;-72
2022/12/24 10:50:14;;;;;;;23.80;6.93;;;;;;;11.11;91.79;101126.38;4918658;29;20048;-71
2022/12/24 10:52:44;;;;;;;36.20;6.80;;;;;;;11.09;91.82;101129.97;4919822;29;20072;-73
2022/12/24 10:55:17;;;;;;;28.92;6.68;;;;;;;11.06;92.14;101136.19;4915676;29;20335;-71
2022/12/24 10:58:17;;;;;;;31.83;6.35;;;;;;;11.03;91.15;101142.41;4915185;29;20052;-71
2022/12/24 11:00:51;;;;;;;54.92;22.25;;;;;;;10.96;91.28;101135.59;4924378;29;20049;-71
2022/12/24 11:03:18;;;;;;;61.35;19.17;;;;;;;10.99;90.82;101137.25;4916553;29;20127;-74
2022/12/24 11:05:59;;;;;;;47.90;13.25;;;;;;;11.05;91.03;101147.63;4913124;29;20121;-72
2022/12/24 11:08:26;;;;;;;27.65;8.23;;;;;;;11.09;90.75;101151.94;4913641;29;20047;-74
2022/12/24 11:11:02;;;;;;;33.22;7.20;;;;;;;11.12;90.73;101143.94;4913032;29;20040;-73
2022/12/24 11:13:37;;;;;;;27.55;7.82;;;;;;;11.16;91.32;101129.75;4914125;29;20426;-73
2022/12/24 11:16:27;;;;;;;35.80;7.03;;;;;;;11.23;91.24;101140.13;4917723;29;20048;-72
2022/12/24 11:19:00;;;;;;;28.20;6.90;;;;;;;11.34;90.59;101151.25;4924837;28;20061;-72
2022/12/24 11:21:33;;;;;;;28.92;6.90;;;;;;;11.37;90.49;101130.03;4917316;29;20056;-72
2022/12/24 11:24:26;;;;;;;29.58;7.30;;;;;;;11.49;90.46;101140.25;4931019;29;20052;-72
2022/12/24 11:27:14;;;;;;;26.40;7.07;;;;;;;11.69;90.13;101141.41;4923530;29;20857;-71
2022/12/24 11:29:41;;;;;;;26.80;6.57;;;;;;;11.75;88.38;101145.66;4931946;29;20044;-72
2022/12/24 11:32:26;;;;;;;32.22;7.68;;;;;;;11.72;89.00;101137.81;4916786;29;20149;-71
2022/12/24 11:34:53;;;;;;;29.38;6.75;;;;;;;11.76;88.02;101131.53;4901821;29;20055;-71
2022/12/24 11:37:23;;;;;;;29.15;6.22;;;;;;;11.80;86.89;101141.97;4920894;29;20045;-72
2022/12/24 11:40:01;;;;;;;30.50;6.72;;;;;;;11.82;86.67;101144.56;4911496;29;20060;-72
2022/12/24 11:42:37;;;;;;;24.50;6.35;;;;;;;11.85;87.24;101140.97;4909116;29;20076;-73
2022/12/24 11:45:20;;;;;;;27.25;5.82;;;;;;;11.92;86.58;101145.16;4917148;29;20049;-71
2022/12/24 11:47:47;;;;;;;25.80;6.40;;;;;;;11.92;86.48;101148.63;4916359;29;20104;-72
2022/12/24 11:50:24;;;;;;;24.52;6.45;;;;;;;11.93;86.53;101155.66;4917242;29;20537;-73
2022/12/24 11:53:21;;;;;;;28.73;6.32;;;;;;;11.93;85.56;101160.94;4924140;29;20146;-73
2022/12/24 11:55:54;;;;;;;28.17;6.70;;;;;;;11.89;86.59;101154.03;4915468;29;20100;-72